createdAt,value
2022-10-09T00:01:15.877Z,9.63
2022-10-09T00:03:46.106Z,11.10
2022-10-09T00:06:16.615Z,11.07
2022-10-09T00:08:45.248Z,10.43
2022-10-09T00:11:15.492Z,9.38
2022-10-09T00:13:44.453Z,9.27
2022-10-09T00:16:15.757Z,9.48
2022-10-09T00:18:44.581Z,10.07
2022-10-09T00:21:21.253Z,8.90
2022-10-09T00:23:50.037Z,10.90
2022-10-09T00:26:18.430Z,11.57
2022-10-09T00:28:47.553Z,10.60
2022-10-09T00:31:17.591Z,10.85
2022-10-09T00:33:46.406Z,9.75
2022-10-09T00:36:16.829Z,9.48
2022-10-09T00:38:45.022Z,9.18
2022-10-09T00:41:16.094Z,9.50
2022-10-09T00:43:48.228Z,9.25
2022-10-09T00:46:37.633Z,7.85
2022-10-09T00:49:13.578Z,8.32
2022-10-09T00:51:44.695Z,9.80
2022-10-09T00:54:15.924Z,11.63
2022-10-09T00:56:44.747Z,9.50
2022-10-09T00:59:13.704Z,8.98
2022-10-09T01:01:43.791Z,9.70
2022-10-09T01:04:11.936Z,9.15
2022-10-09T01:06:53.124Z,9.80
2022-10-09T01:09:26.994Z,9.68
2022-10-09T01:12:00.321Z,8.30
2022-10-09T01:14:30.739Z,7.45
2022-10-09T01:17:09.019Z,8.70
2022-10-09T01:19:55.857Z,8.68
2022-10-09T01:22:36.796Z,8.43
2022-10-09T01:25:08.818Z,8.63
2022-10-09T01:27:39.637Z,8.07
2022-10-09T01:30:11.429Z,8.07
2022-10-09T01:32:42.240Z,9.40
2022-10-09T01:35:13.847Z,7.88
2022-10-09T01:37:44.316Z,8.38
2022-10-09T01:40:15.737Z,9.38
2022-10-09T01:42:47.416Z,10.02
2022-10-09T01:45:16.331Z,8.82
2022-10-09T01:47:44.796Z,9.70
2022-10-09T01:50:19.547Z,10.13
2022-10-09T01:52:51.625Z,9.70
2022-10-09T01:55:33.477Z,9.65
2022-10-09T01:58:10.112Z,10.43
2022-10-09T02:00:42.557Z,10.10
2022-10-09T02:03:14.368Z,11.30
2022-10-09T02:05:44.449Z,10.27
2022-10-09T02:08:14.856Z,10.57
2022-10-09T02:10:44.981Z,11.18
2022-10-09T02:13:14.666Z,10.38
2022-10-09T02:15:48.747Z,10.65
2022-10-09T02:18:24.322Z,12.18
2022-10-09T02:20:55.276Z,12.10
2022-10-09T02:23:25.481Z,11.82
2022-10-09T02:25:54.841Z,11.30
2022-10-09T02:28:24.725Z,10.90
2022-10-09T02:30:59.414Z,10.73
2022-10-09T02:33:33.695Z,10.88
2022-10-09T02:36:02.573Z,10.20
2022-10-09T02:38:30.954Z,10.00
2022-10-09T02:41:00.166Z,9.93
2022-10-09T02:43:29.876Z,9.50
2022-10-09T02:45:58.207Z,9.40
2022-10-09T02:48:26.477Z,10.50
2022-10-09T02:50:54.521Z,10.00
2022-10-09T02:53:22.512Z,9.38
2022-10-09T02:55:50.679Z,10.48
2022-10-09T02:58:19.096Z,9.93
2022-10-09T03:00:51.756Z,10.43
2022-10-09T03:03:20.461Z,9.68
2022-10-09T03:05:49.449Z,10.55
2022-10-09T03:08:17.516Z,11.30
2022-10-09T03:10:45.527Z,10.95
2022-10-09T03:13:13.658Z,12.20
2022-10-09T03:15:41.751Z,10.75
2022-10-09T03:18:11.350Z,10.02
2022-10-09T03:20:39.953Z,9.52
2022-10-09T03:23:08.055Z,9.73
2022-10-09T03:25:36.095Z,9.40
2022-10-09T03:28:04.399Z,10.52
2022-10-09T03:30:32.444Z,9.63
2022-10-09T03:33:00.462Z,9.38
2022-10-09T03:35:29.862Z,7.85
2022-10-09T03:37:57.976Z,9.20
2022-10-09T03:40:26.019Z,9.02
2022-10-09T03:42:54.048Z,9.30
2022-10-09T03:45:22.073Z,9.38
2022-10-09T03:47:50.078Z,9.35
2022-10-09T03:50:18.302Z,9.68
2022-10-09T03:52:47.974Z,9.48
2022-10-09T03:55:16.331Z,8.60
2022-10-09T03:57:44.436Z,8.98
2022-10-09T04:00:13.779Z,8.95
2022-10-09T04:02:42.020Z,8.63
2022-10-09T04:05:10.660Z,7.43
2022-10-09T04:07:38.878Z,7.97
2022-10-09T04:10:09.331Z,8.55
2022-10-09T04:12:37.497Z,7.97
2022-10-09T04:15:06.240Z,8.80
2022-10-09T04:17:34.243Z,9.10
2022-10-09T04:20:02.726Z,7.95
2022-10-09T04:22:30.902Z,8.10
2022-10-09T04:24:58.941Z,8.48
2022-10-09T04:27:28.345Z,8.63
2022-10-09T04:29:56.380Z,9.10
2022-10-09T04:32:24.423Z,8.40
2022-10-09T04:34:52.512Z,7.90
2022-10-09T04:37:20.687Z,8.00
2022-10-09T04:39:48.844Z,9.50
2022-10-09T04:42:16.853Z,8.95
2022-10-09T04:44:46.255Z,8.55
2022-10-09T04:47:14.284Z,8.68
2022-10-09T04:49:42.466Z,9.05
2022-10-09T04:52:10.481Z,9.18
2022-10-09T04:54:38.474Z,8.77
2022-10-09T04:57:06.472Z,8.75
2022-10-09T04:59:34.523Z,8.13
2022-10-09T05:02:04.057Z,8.05
2022-10-09T05:04:32.215Z,9.27
2022-10-09T05:07:00.180Z,8.73
2022-10-09T05:09:28.201Z,8.25
2022-10-09T05:11:56.212Z,8.65
2022-10-09T05:14:24.364Z,8.07
2022-10-09T05:17:12.617Z,9.65
2022-10-09T05:19:42.461Z,10.57
2022-10-09T05:22:10.442Z,10.13
2022-10-09T05:24:38.443Z,11.02
2022-10-09T05:27:06.839Z,9.48
2022-10-09T05:29:35.046Z,9.73
2022-10-09T05:32:03.096Z,9.63
2022-10-09T05:34:31.186Z,9.70
2022-10-09T05:37:00.476Z,9.88
2022-10-09T05:39:28.443Z,9.05
2022-10-09T05:41:56.475Z,8.48
2022-10-09T05:44:24.795Z,9.23
2022-10-09T05:46:52.773Z,9.32
2022-10-09T05:49:20.852Z,8.93
2022-10-09T05:51:49.955Z,8.63
2022-10-09T05:54:19.343Z,9.15
2022-10-09T05:56:47.452Z,8.65
2022-10-09T05:59:19.816Z,10.10
2022-10-09T06:01:50.271Z,10.27
2022-10-09T06:04:20.322Z,10.45
2022-10-09T06:06:49.422Z,9.80
2022-10-09T06:09:19.998Z,10.13
2022-10-09T06:11:48.128Z,10.10
2022-10-09T06:14:16.170Z,10.60
2022-10-09T06:16:47.097Z,11.95
2022-10-09T06:19:16.904Z,10.70
2022-10-09T06:21:45.979Z,8.90
2022-10-09T06:24:25.771Z,7.68
2022-10-09T06:26:56.752Z,5.88
2022-10-09T06:29:24.745Z,6.00
2022-10-09T06:31:52.861Z,4.95
2022-10-09T06:34:21.126Z,4.50
2022-10-09T06:36:49.201Z,4.53
2022-10-09T06:39:17.616Z,3.80
2022-10-09T06:41:46.945Z,3.90
2022-10-09T06:44:31.026Z,3.50
2022-10-09T06:46:59.216Z,3.35
2022-10-09T06:49:27.395Z,3.63
2022-10-09T06:51:55.355Z,2.72
2022-10-09T06:54:23.419Z,2.90
2022-10-09T06:56:55.079Z,3.03
2022-10-09T06:59:23.095Z,2.83
2022-10-09T07:01:51.251Z,2.95
2022-10-09T07:04:19.419Z,3.17
2022-10-09T07:06:48.676Z,3.05
2022-10-09T07:09:16.941Z,3.58
2022-10-09T07:11:46.978Z,3.35
2022-10-09T07:14:17.184Z,3.08
2022-10-09T07:16:46.977Z,3.40
2022-10-09T07:19:16.184Z,3.28
2022-10-09T07:21:47.269Z,3.75
2022-10-09T07:24:15.811Z,3.60
2022-10-09T07:26:45.624Z,3.30
2022-10-09T07:29:16.900Z,4.13
2022-10-09T07:31:45.065Z,2.55
2022-10-09T07:34:13.188Z,2.60
2022-10-09T07:36:41.198Z,3.00
2022-10-09T07:39:09.185Z,2.20
2022-10-09T07:41:37.264Z,2.67
2022-10-09T07:44:05.270Z,2.65
2022-10-09T07:46:34.615Z,2.50
2022-10-09T07:49:02.931Z,2.20
2022-10-09T07:51:31.802Z,2.38
2022-10-09T07:54:00.333Z,2.45
2022-10-09T07:56:30.314Z,2.30
2022-10-09T07:59:00.019Z,2.00
2022-10-09T08:01:29.668Z,1.70
2022-10-09T08:04:00.892Z,1.67
2022-10-09T08:06:29.494Z,1.20
2022-10-09T08:08:59.372Z,1.20
2022-10-09T08:11:28.722Z,1.88
2022-10-09T08:13:57.050Z,1.10
2022-10-09T08:16:26.258Z,1.27
2022-10-09T08:18:56.114Z,1.35
2022-10-09T08:21:26.092Z,1.35
2022-10-09T08:23:55.503Z,1.25
2022-10-09T08:26:25.400Z,1.38
2022-10-09T08:28:54.929Z,1.33
2022-10-09T08:31:23.500Z,1.25
2022-10-09T08:33:54.367Z,1.40
2022-10-09T08:36:23.267Z,1.60
2022-10-09T08:38:53.165Z,1.10
2022-10-09T08:41:30.382Z,1.27
2022-10-09T08:44:03.777Z,1.40
2022-10-09T08:46:41.078Z,1.45
2022-10-09T08:49:19.359Z,1.13
2022-10-09T08:51:47.371Z,1.48
2022-10-09T08:54:26.201Z,1.20
2022-10-09T08:56:54.406Z,0.85
2022-10-09T08:59:22.415Z,1.02
2022-10-09T09:01:59.109Z,1.15
2022-10-09T09:04:51.128Z,1.30
2022-10-09T09:07:29.929Z,1.50
2022-10-09T09:10:06.107Z,1.25
2022-10-09T09:12:45.404Z,0.63
2022-10-09T09:15:27.708Z,1.10
2022-10-09T09:18:05.086Z,1.13
2022-10-09T09:20:46.909Z,1.50
2022-10-09T09:23:16.996Z,2.00
2022-10-09T09:25:47.006Z,0.90
2022-10-09T09:28:21.091Z,0.88
2022-10-09T09:30:55.826Z,0.93
2022-10-09T09:33:33.832Z,1.02
2022-10-09T09:36:10.039Z,1.17
2022-10-09T09:38:54.178Z,1.00
2022-10-09T09:41:29.040Z,1.30
2022-10-09T09:43:57.061Z,0.82
2022-10-09T09:46:28.919Z,0.70
2022-10-09T09:48:56.923Z,0.60
2022-10-09T09:51:29.589Z,0.73
2022-10-09T09:54:00.126Z,0.82
2022-10-09T09:57:06.864Z,0.90
2022-10-09T09:59:34.318Z,1.00
2022-10-09T10:02:04.498Z,1.20
2022-10-09T10:04:32.607Z,0.90
2022-10-09T10:07:00.879Z,0.68
2022-10-09T10:09:28.901Z,0.88
2022-10-09T10:12:00.943Z,0.80
2022-10-09T10:14:29.527Z,0.80
2022-10-09T10:16:59.870Z,1.17
2022-10-09T10:19:30.589Z,1.23
2022-10-09T10:22:01.174Z,1.58
2022-10-09T10:24:33.235Z,0.90
2022-10-09T10:27:06.650Z,1.42
2022-10-09T10:29:38.441Z,1.10
2022-10-09T10:32:13.494Z,1.50
2022-10-09T10:34:46.881Z,0.90
2022-10-09T10:37:30.174Z,1.27
2022-10-09T10:40:02.752Z,1.00
2022-10-09T10:42:41.772Z,1.38
2022-10-09T10:45:15.809Z,1.20
2022-10-09T10:47:50.637Z,1.40
2022-10-09T10:50:21.519Z,1.10
2022-10-09T10:53:02.541Z,0.90
2022-10-09T10:55:54.142Z,0.93
2022-10-09T10:58:31.811Z,0.82
2022-10-09T11:01:14.026Z,0.82
2022-10-09T11:03:58.567Z,0.80
2022-10-09T11:06:34.559Z,0.68
2022-10-09T11:09:12.739Z,0.80
2022-10-09T11:11:48.258Z,1.10
2022-10-09T11:14:29.939Z,0.90
2022-10-09T11:17:06.787Z,0.82
2022-10-09T11:20:00.116Z,0.90
2022-10-09T11:22:43.402Z,1.33
2022-10-09T11:25:31.715Z,0.73
2022-10-09T11:28:04.852Z,1.17
2022-10-09T11:30:41.137Z,1.10
2022-10-09T11:33:23.452Z,1.08
2022-10-09T11:35:59.069Z,0.88
2022-10-09T11:38:30.036Z,1.27
2022-10-09T11:40:59.507Z,0.93
2022-10-09T11:43:48.847Z,0.70
2022-10-09T11:46:27.734Z,0.70
2022-10-09T11:49:06.650Z,0.70
2022-10-09T11:51:44.185Z,0.98
2022-10-09T11:54:15.869Z,0.80
2022-10-09T11:56:55.459Z,0.95
2022-10-09T11:59:26.067Z,0.68
2022-10-09T12:01:55.730Z,0.70
2022-10-09T12:04:50.096Z,0.70
2022-10-09T12:07:31.858Z,0.77
2022-10-09T12:10:04.021Z,0.60
2022-10-09T12:12:32.608Z,0.90
2022-10-09T12:15:12.911Z,0.90
2022-10-09T12:17:50.033Z,0.70
2022-10-09T12:20:21.705Z,0.73
2022-10-09T12:23:21.298Z,0.90
2022-10-09T12:25:44.902Z,0.73
2022-10-09T12:28:21.475Z,0.80
2022-10-09T12:30:51.337Z,0.77
2022-10-09T12:33:25.066Z,0.90
2022-10-09T12:36:02.165Z,1.20
2022-10-09T12:38:32.806Z,1.10
2022-10-09T12:41:03.856Z,0.80
2022-10-09T12:43:33.636Z,0.70
2022-10-09T12:46:02.181Z,1.10
2022-10-09T12:48:38.546Z,0.73
2022-10-09T12:51:16.142Z,1.10
2022-10-09T12:53:49.532Z,0.90
2022-10-09T12:56:22.368Z,0.98
2022-10-09T12:58:51.141Z,0.90
2022-10-09T13:01:20.385Z,0.88
2022-10-09T13:03:56.802Z,0.50
2022-10-09T13:06:28.016Z,0.85
2022-10-09T13:08:59.018Z,0.70
2022-10-09T13:11:35.263Z,0.90
2022-10-09T13:14:03.456Z,0.85
2022-10-09T13:16:41.445Z,0.70
2022-10-09T13:19:23.498Z,0.90
2022-10-09T13:22:19.039Z,0.95
2022-10-09T13:24:47.577Z,0.70
2022-10-09T13:27:15.824Z,0.68
2022-10-09T13:29:44.544Z,0.77
2022-10-09T13:32:14.073Z,0.93
2022-10-09T13:34:44.074Z,0.70
2022-10-09T13:37:14.115Z,1.20
2022-10-09T13:39:42.618Z,0.73
2022-10-09T13:42:13.052Z,0.90
2022-10-09T13:44:41.183Z,0.60
2022-10-09T13:47:09.270Z,0.70
2022-10-09T13:49:37.444Z,0.85
2022-10-09T13:52:07.342Z,0.88
2022-10-09T13:54:35.529Z,0.80
2022-10-09T13:57:03.913Z,1.02
2022-10-09T13:59:32.473Z,1.02
2022-10-09T14:02:00.957Z,1.00
2022-10-09T14:04:29.287Z,0.60
2022-10-09T14:06:57.466Z,0.75
2022-10-09T14:09:26.956Z,1.35
2022-10-09T14:11:55.084Z,1.13
2022-10-09T14:14:23.540Z,0.95
2022-10-09T14:16:51.838Z,1.42
2022-10-09T14:19:19.963Z,1.00
2022-10-09T14:21:48.053Z,1.30
2022-10-09T14:24:16.022Z,1.45
2022-10-09T14:26:48.414Z,2.08
2022-10-09T14:29:19.645Z,0.90
2022-10-09T14:31:47.670Z,1.33
2022-10-09T14:34:15.738Z,1.48
2022-10-09T14:36:44.225Z,1.10
2022-10-09T14:39:12.340Z,1.30
2022-10-09T14:41:40.288Z,1.10
2022-10-09T14:44:11.227Z,1.27
2022-10-09T14:46:39.439Z,0.77
2022-10-09T14:49:09.386Z,1.42
2022-10-09T14:51:39.023Z,1.70
2022-10-09T14:54:07.975Z,1.10
2022-10-09T14:56:36.647Z,1.45
2022-10-09T14:59:05.993Z,1.30
2022-10-09T15:01:36.411Z,1.52
2022-10-09T15:04:06.940Z,1.60
2022-10-09T15:06:35.630Z,1.30
2022-10-09T15:09:06.163Z,1.30
2022-10-09T15:11:35.484Z,1.20
2022-10-09T15:14:03.859Z,1.63
2022-10-09T15:16:31.983Z,1.90
2022-10-09T15:19:01.590Z,1.80
2022-10-09T15:21:31.743Z,1.77
2022-10-09T15:24:01.224Z,2.03
2022-10-09T15:26:32.695Z,1.90
2022-10-09T15:29:02.678Z,1.63
2022-10-09T15:31:32.316Z,1.70
2022-10-09T15:34:02.547Z,1.98
2022-10-09T15:36:32.615Z,1.65
2022-10-09T15:39:03.310Z,1.60
2022-10-09T15:41:32.813Z,1.80
2022-10-09T15:44:02.660Z,2.08
2022-10-09T15:46:31.519Z,1.48
2022-10-09T15:49:01.307Z,1.73
2022-10-09T15:51:30.276Z,1.90
2022-10-09T15:54:00.656Z,1.83
2022-10-09T15:56:29.395Z,2.38
2022-10-09T15:58:58.678Z,1.67
2022-10-09T16:01:27.238Z,2.70
2022-10-09T16:03:55.533Z,1.85
2022-10-09T16:06:25.658Z,2.05
2022-10-09T16:08:56.694Z,2.15
2022-10-09T16:11:26.511Z,2.22
2022-10-09T16:13:56.366Z,2.15
2022-10-09T16:16:27.508Z,2.35
2022-10-09T16:18:56.442Z,2.08
2022-10-09T16:21:28.063Z,1.83
2022-10-09T16:23:59.164Z,2.60
2022-10-09T16:26:29.900Z,1.70
2022-10-09T16:29:00.091Z,2.10
2022-10-09T16:31:31.286Z,2.10
2022-10-09T16:33:59.837Z,2.30
2022-10-09T16:36:30.020Z,2.42
2022-10-09T16:38:58.799Z,2.35
2022-10-09T16:41:27.424Z,2.80
2022-10-09T16:43:57.306Z,2.30
2022-10-09T16:46:27.670Z,1.88
2022-10-09T16:48:57.574Z,2.17
2022-10-09T16:51:30.462Z,2.45
2022-10-09T16:54:00.534Z,2.80
2022-10-09T16:56:30.721Z,2.80
2022-10-09T16:59:00.645Z,2.38
2022-10-09T17:01:29.456Z,2.50
2022-10-09T17:03:58.896Z,2.55
2022-10-09T17:06:29.147Z,2.38
2022-10-09T17:08:59.194Z,2.50
2022-10-09T17:11:29.704Z,2.60
2022-10-09T17:13:58.363Z,3.10
2022-10-09T17:16:30.450Z,3.10
2022-10-09T17:18:58.840Z,3.95
2022-10-09T17:21:30.956Z,3.08
2022-10-09T17:24:05.134Z,3.17
2022-10-09T17:26:33.380Z,3.50
2022-10-09T17:29:02.143Z,3.22
2022-10-09T17:31:30.599Z,3.95
2022-10-09T17:34:00.915Z,3.50
2022-10-09T17:36:30.845Z,3.42
2022-10-09T17:38:59.353Z,5.30
2022-10-09T17:41:29.888Z,5.65
2022-10-09T17:43:58.773Z,3.20
2022-10-09T17:46:28.865Z,3.30
2022-10-09T17:48:58.427Z,3.63
2022-10-09T17:51:28.323Z,3.95
2022-10-09T17:56:34.114Z,3.42
2022-10-09T17:59:04.452Z,4.07
2022-10-09T18:01:32.884Z,3.80
2022-10-09T18:04:01.183Z,3.47
2022-10-09T18:06:35.425Z,3.95
2022-10-09T18:09:05.044Z,8.15
2022-10-09T18:11:34.563Z,9.05
2022-10-09T18:14:03.861Z,6.43
2022-10-09T18:16:36.875Z,5.18
2022-10-09T18:19:07.609Z,5.07
2022-10-09T18:21:36.651Z,3.42
2022-10-09T18:24:05.250Z,4.45
2022-10-09T18:26:35.528Z,3.20
2022-10-09T18:29:04.037Z,3.25
2022-10-09T18:31:32.488Z,2.85
2022-10-09T18:34:01.732Z,3.13
2022-10-09T18:36:33.673Z,3.05
2022-10-09T18:39:03.751Z,2.80
2022-10-09T18:41:31.895Z,2.63
2022-10-09T18:44:01.966Z,2.63
2022-10-09T18:46:35.202Z,2.38
2022-10-09T18:49:03.629Z,2.47
2022-10-09T18:51:32.727Z,2.60
2022-10-09T18:54:03.719Z,2.78
2022-10-09T18:56:33.749Z,2.40
2022-10-09T18:59:07.083Z,2.75
2022-10-09T19:01:35.218Z,2.72
2022-10-09T19:04:03.709Z,2.03
2022-10-09T19:06:31.861Z,2.47
2022-10-09T19:09:00.899Z,2.35
2022-10-09T19:11:29.644Z,2.67
2022-10-09T19:14:00.122Z,2.58
2022-10-09T19:16:31.351Z,2.78
2022-10-09T19:19:00.174Z,2.25
2022-10-09T19:21:28.573Z,2.38
2022-10-09T19:23:56.855Z,2.05
2022-10-09T19:26:25.116Z,2.50
2022-10-09T19:28:53.263Z,2.63
2022-10-09T19:31:21.404Z,2.35
2022-10-09T19:33:51.132Z,2.30
2022-10-09T19:36:19.403Z,2.10
2022-10-09T19:38:48.564Z,2.30
2022-10-09T19:41:17.781Z,1.98
2022-10-09T19:43:45.828Z,3.33
2022-10-09T19:46:17.268Z,2.33
2022-10-09T19:48:45.888Z,3.75
2022-10-09T19:51:40.805Z,2.95
2022-10-09T19:54:10.188Z,2.42
2022-10-09T19:56:39.142Z,3.08
2022-10-09T19:59:08.936Z,2.85
2022-10-09T20:01:40.579Z,3.85
2022-10-09T20:04:11.024Z,3.20
2022-10-09T20:06:43.078Z,2.33
2022-10-09T20:09:12.916Z,3.30
2022-10-09T20:11:41.549Z,3.13
2022-10-09T20:14:10.912Z,2.30
2022-10-09T20:16:39.361Z,3.25
2022-10-09T20:19:08.134Z,3.15
2022-10-09T20:21:36.387Z,3.00
2022-10-09T20:24:06.199Z,3.60
2022-10-09T20:26:34.568Z,3.53
2022-10-09T20:29:02.866Z,2.60
2022-10-09T20:31:31.368Z,2.83
2022-10-09T20:33:59.875Z,2.53
2022-10-09T20:36:31.262Z,3.40
2022-10-09T20:39:00.906Z,2.53
2022-10-09T20:41:31.467Z,2.90
2022-10-09T20:44:01.244Z,3.47
2022-10-09T20:46:31.242Z,2.88
2022-10-09T20:48:59.913Z,3.00
2022-10-09T20:51:28.157Z,2.55
2022-10-09T20:53:59.025Z,2.75
2022-10-09T20:56:31.568Z,2.55
2022-10-09T20:59:00.441Z,2.90
2022-10-09T21:01:29.778Z,2.22
2022-10-09T21:03:59.190Z,2.67
2022-10-09T21:06:27.853Z,2.30
2022-10-09T21:08:56.875Z,2.13
2022-10-09T21:11:26.079Z,2.42
2022-10-09T21:13:56.183Z,3.15
2022-10-09T21:16:25.800Z,2.65
2022-10-09T21:18:57.812Z,2.47
2022-10-09T21:21:26.892Z,2.80
2022-10-09T21:23:58.105Z,2.20
2022-10-09T21:26:26.985Z,2.63
2022-10-09T21:28:59.710Z,2.30
2022-10-09T21:31:30.698Z,1.98
2022-10-09T21:34:00.111Z,2.10
2022-10-09T21:36:35.479Z,2.00
2022-10-09T21:39:05.472Z,2.03
2022-10-09T21:41:33.978Z,2.33
2022-10-09T21:44:04.297Z,2.55
2022-10-09T21:46:32.526Z,2.28
2022-10-09T21:49:05.419Z,2.10
2022-10-09T21:51:35.509Z,2.83
2022-10-09T21:54:03.592Z,2.25
2022-10-09T21:56:31.729Z,2.08
2022-10-09T21:58:59.858Z,2.00
2022-10-09T22:01:29.598Z,2.17
2022-10-09T22:03:57.959Z,1.65
2022-10-09T22:06:26.616Z,2.35
2022-10-09T22:08:54.772Z,1.85
2022-10-09T22:11:22.909Z,2.15
2022-10-09T22:13:51.266Z,1.98
2022-10-09T22:16:19.400Z,2.45
2022-10-09T22:18:49.013Z,2.08
2022-10-09T22:21:17.785Z,2.17
2022-10-09T22:23:46.408Z,2.00
2022-10-09T22:26:16.737Z,1.58
2022-10-09T22:28:45.352Z,2.30
2022-10-09T22:31:15.863Z,2.22
2022-10-09T22:33:44.802Z,1.90
2022-10-09T22:36:16.341Z,2.00
2022-10-09T22:38:46.088Z,2.20
2022-10-09T22:41:15.787Z,1.60
2022-10-09T22:43:46.072Z,2.13
2022-10-09T22:46:17.732Z,1.92
2022-10-09T22:48:46.513Z,2.47
2022-10-09T22:51:18.501Z,1.60
2022-10-09T22:53:47.647Z,1.63
2022-10-09T22:56:17.273Z,1.80
2022-10-09T22:58:45.662Z,1.67
2022-10-09T23:01:16.119Z,1.92
2022-10-09T23:03:44.394Z,1.92
2022-10-09T23:06:15.990Z,1.70
2022-10-09T23:08:46.307Z,1.98
2022-10-09T23:11:15.910Z,1.88
2022-10-09T23:13:44.376Z,2.00
2022-10-09T23:16:14.745Z,2.35
2022-10-09T23:18:44.157Z,2.05
2022-10-09T23:21:13.861Z,1.80
2022-10-09T23:23:44.873Z,1.83
2022-10-09T23:26:15.132Z,1.98
2022-10-09T23:28:43.781Z,1.80
2022-10-09T23:31:14.158Z,2.40
2022-10-09T23:33:44.442Z,2.30
2022-10-09T23:36:14.491Z,2.00
2022-10-09T23:38:44.528Z,1.85
2022-10-09T23:41:14.927Z,2.03
2022-10-09T23:43:44.000Z,1.67
2022-10-09T23:46:14.555Z,2.47
2022-10-09T23:48:43.141Z,2.00
2022-10-09T23:51:11.792Z,1.73
2022-10-09T23:53:40.369Z,1.77
2022-10-09T23:56:17.255Z,1.70
2022-10-09T23:58:46.092Z,1.60
